Time;durP1;ratioP1;P1;durP2;ratioP2;P2;SDS_P1;SDS_P2;PMS_P1;PMS_P2;Temp;Humidity;BMP_temperature;BMP_pressure;BME280_temperature;BME280_humidity;BME280_pressure;Samples;Min_cycle;Max_cycle;Signal;HPM_P1;HPM_P2
2023/12/09 00:01:57;;;;;;;52.67;19.52;;;7.90;99.90;;;;;;5075678;28;20032;-77
2023/12/09 00:04:24;;;;;;;36.30;16.80;;;7.90;99.90;;;;;;5080059;28;20032;-76
2023/12/09 00:06:50;;;;;;;44.95;16.35;;;7.80;99.90;;;;;;5074874;28;20040;-77
2023/12/09 00:09:20;;;;;;;36.40;14.65;;;7.80;99.90;;;;;;5082626;28;20035;-77
2023/12/09 00:11:46;;;;;;;34.70;13.48;;;7.90;99.90;;;;;;5073829;28;20075;-77
2023/12/09 00:14:13;;;;;;;34.83;14.10;;;7.90;99.90;;;;;;5096013;28;20097;-76
2023/12/09 00:16:42;;;;;;;44.92;16.35;;;7.80;99.90;;;;;;5068050;28;20043;-77
2023/12/09 00:19:09;;;;;;;35.55;14.88;;;7.90;99.90;;;;;;5095191;28;20031;-75
2023/12/09 00:21:35;;;;;;;44.97;16.60;;;7.90;99.90;;;;;;5085891;28;20024;-76
2023/12/09 00:24:02;;;;;;;38.90;14.95;;;7.90;99.90;;;;;;5072002;28;20386;-77
2023/12/09 00:26:30;;;;;;;36.03;14.00;;;7.90;99.90;;;;;;5075273;28;20043;-76
2023/12/09 00:28:56;;;;;;;44.65;14.63;;;7.80;99.90;;;;;;5055094;28;20043;-76
2023/12/09 00:31:23;;;;;;;39.95;14.95;;;7.90;99.90;;;;;;5100547;28;20038;-78
2023/12/09 00:33:49;;;;;;;51.35;19.08;;;7.90;99.90;;;;;;5075578;28;20040;-76
2023/12/09 00:36:15;;;;;;;41.80;18.20;;;7.90;99.90;;;;;;5054221;28;20394;-77
2023/12/09 00:38:42;;;;;;;46.13;17.00;;;7.90;99.90;;;;;;5077547;28;20029;-77
2023/12/09 00:41:09;;;;;;;36.65;15.63;;;7.90;99.90;;;;;;5053982;27;20027;-76
2023/12/09 00:43:35;;;;;;;33.20;14.82;;;7.90;99.90;;;;;;5059529;28;20490;-76
2023/12/09 00:46:01;;;;;;;46.95;17.25;;;7.90;99.90;;;;;;5090662;28;20474;-77
2023/12/09 00:48:27;;;;;;;44.60;17.17;;;7.90;99.90;;;;;;5076572;28;20039;-78
2023/12/09 00:50:54;;;;;;;39.50;16.52;;;7.90;99.90;;;;;;5074128;28;20028;-76
2023/12/09 00:53:20;;;;;;;35.15;14.48;;;7.90;99.90;;;;;;5077662;28;20225;-77
2023/12/09 00:55:46;;;;;;;48.30;15.07;;;7.90;99.90;;;;;;5071726;28;20529;-77
2023/12/09 00:58:13;;;;;;;40.60;14.13;;;7.90;99.90;;;;;;5076508;28;20043;-76
2023/12/09 01:00:39;;;;;;;36.60;14.65;;;7.90;99.90;;;;;;5089323;28;20061;-76
2023/12/09 01:03:06;;;;;;;41.05;15.02;;;7.90;99.90;;;;;;5051213;28;20028;-76
2023/12/09 01:05:32;;;;;;;38.08;15.13;;;7.90;99.90;;;;;;5070602;28;20420;-77
2023/12/09 01:07:58;;;;;;;37.25;14.57;;;7.90;99.90;;;;;;5050757;28;20032;-76
2023/12/09 01:10:24;;;;;;;40.53;15.40;;;7.90;99.90;;;;;;5090290;28;20028;-76
2023/12/09 01:12:51;;;;;;;54.40;18.75;;;7.90;99.90;;;;;;5067993;28;20032;-76
2023/12/09 01:15:17;;;;;;;50.97;17.42;;;7.90;99.90;;;;;;5097335;28;20032;-78
2023/12/09 01:17:43;;;;;;;48.80;16.73;;;7.90;99.90;;;;;;5083338;28;20051;-76
2023/12/09 01:20:10;;;;;;;40.80;15.93;;;7.90;99.90;;;;;;5090991;28;20024;-77
2023/12/09 01:22:36;;;;;;;38.92;15.00;;;7.90;99.90;;;;;;5061834;28;20035;-77
2023/12/09 01:25:03;;;;;;;38.08;13.82;;;7.90;99.90;;;;;;5111762;27;20043;-77
2023/12/09 01:27:30;;;;;;;44.17;16.50;;;7.90;99.90;;;;;;5076447;28;20032;-77
2023/12/09 01:29:56;;;;;;;40.25;15.35;;;7.90;99.90;;;;;;5074754;28;20024;-77
2023/12/09 01:32:22;;;;;;;45.05;14.18;;;7.80;99.90;;;;;;5075821;28;20024;-77
2023/12/09 01:34:49;;;;;;;55.17;18.85;;;7.80;99.90;;;;;;5074488;28;20036;-77
2023/12/09 01:37:15;;;;;;;33.53;13.95;;;7.80;99.90;;;;;;5094287;28;20028;-76
2023/12/09 01:39:41;;;;;;;39.92;12.77;;;7.80;99.90;;;;;;5098503;28;20028;-77
2023/12/09 01:42:09;;;;;;;35.78;13.70;;;7.80;99.90;;;;;;5083948;28;20051;-77
2023/12/09 01:44:35;;;;;;;36.10;13.32;;;7.80;99.90;;;;;;5075408;28;20028;-77
2023/12/09 01:47:02;;;;;;;37.75;13.45;;;7.80;99.90;;;;;;5072500;28;20036;-76
2023/12/09 01:49:29;;;;;;;39.22;13.15;;;7.80;99.90;;;;;;5076554;28;20032;-75
2023/12/09 01:51:57;;;;;;;32.65;13.77;;;7.80;99.90;;;;;;5090400;28;20377;-76
2023/12/09 01:54:24;;;;;;;43.38;13.98;;;7.80;99.90;;;;;;5076355;28;20050;-76
2023/12/09 01:56:50;;;;;;;36.90;13.45;;;7.80;99.90;;;;;;5081402;28;20043;-76
2023/12/09 01:59:17;;;;;;;35.17;11.63;;;7.80;99.90;;;;;;5071300;28;20051;-76
2023/12/09 02:01:44;;;;;;;38.45;14.35;;;7.80;99.90;;;;;;5080494;28;20548;-76
2023/12/09 02:04:10;;;;;;;36.10;14.23;;;7.80;99.90;;;;;;5085834;28;20518;-77
2023/12/09 02:06:37;;;;;;;45.28;14.80;;;7.80;99.90;;;;;;5098539;28;20032;-77
2023/12/09 02:09:03;;;;;;;39.05;13.68;;;7.80;99.90;;;;;;5093359;28;20474;-77
2023/12/09 02:11:54;;;;;;;32.60;12.40;;;7.80;99.90;;;;;;5073510;28;20035;-76
2023/12/09 02:14:42;;;;;;;36.83;12.40;;;7.80;99.90;;;;;;5091332;28;20035;-76
2023/12/09 02:17:22;;;;;;;46.72;15.02;;;7.80;99.90;;;;;;5078307;28;20036;-76
2023/12/09 02:19:48;;;;;;;33.42;13.48;;;7.80;99.90;;;;;;5074220;28;20461;-75
2023/12/09 02:22:15;;;;;;;50.78;16.17;;;7.80;99.90;;;;;;5089487;28;20032;-75
2023/12/09 02:24:41;;;;;;;46.20;15.75;;;7.80;99.90;;;;;;5088357;28;20047;-75
2023/12/09 02:27:18;;;;;;;44.67;16.63;;;7.80;99.90;;;;;;5068672;28;20027;-76
2023/12/09 02:30:10;;;;;;;42.08;15.27;;;7.80;99.90;;;;;;5073319;28;20039;-75
2023/12/09 02:32:38;;;;;;;37.92;13.68;;;7.80;99.90;;;;;;5075407;28;20047;-76
2023/12/09 02:35:06;;;;;;;42.92;15.60;;;7.80;99.90;;;;;;5057739;28;20024;-76
2023/12/09 02:37:35;;;;;;;39.55;17.27;;;7.80;99.90;;;;;;5071073;28;20058;-76
2023/12/09 02:40:02;;;;;;;42.50;17.05;;;7.80;99.90;;;;;;5111323;27;20032;-76
2023/12/09 02:42:29;;;;;;;33.25;14.02;;;7.80;99.90;;;;;;5072420;28;20446;-76
2023/12/09 02:44:56;;;;;;;23.88;11.65;;;7.80;99.90;;;;;;5051010;28;20032;-76
2023/12/09 02:47:22;;;;;;;36.42;15.40;;;7.80;99.90;;;;;;5070318;28;20027;-77
2023/12/09 02:49:49;;;;;;;31.30;13.13;;;7.80;99.90;;;;;;5076656;28;20039;-75
2023/12/09 02:52:15;;;;;;;49.47;16.92;;;7.80;99.90;;;;;;5068094;28;20023;-77
2023/12/09 02:54:42;;;;;;;39.28;15.32;;;7.80;99.90;;;;;;5075841;28;20058;-76
2023/12/09 02:57:08;;;;;;;41.88;15.90;;;7.80;99.90;;;;;;5072206;28;20032;-76
2023/12/09 02:59:34;;;;;;;43.00;15.40;;;7.80;99.90;;;;;;5068506;28;20043;-76
2023/12/09 03:02:01;;;;;;;39.70;13.65;;;7.80;99.90;;;;;;5087236;28;20475;-76
2023/12/09 03:04:27;;;;;;;36.97;14.30;;;7.70;99.90;;;;;;5077461;28;20043;-76
2023/12/09 03:06:54;;;;;;;36.78;13.77;;;7.70;99.90;;;;;;5053789;28;20679;-75
2023/12/09 03:09:20;;;;;;;38.20;13.57;;;7.70;99.90;;;;;;5096511;28;20023;-76
2023/12/09 03:11:46;;;;;;;40.15;14.77;;;7.70;99.90;;;;;;5073063;28;20031;-77
2023/12/09 03:14:13;;;;;;;36.53;13.95;;;7.70;99.90;;;;;;5075107;28;20035;-75
2023/12/09 03:16:39;;;;;;;48.58;17.42;;;7.70;99.90;;;;;;5106630;27;20028;-75
2023/12/09 03:19:05;;;;;;;41.75;17.15;;;7.70;99.90;;;;;;5068317;28;20047;-76
2023/12/09 03:21:32;;;;;;;40.28;17.60;;;7.70;99.90;;;;;;5086312;28;20430;-77
2023/12/09 03:23:58;;;;;;;64.47;22.65;;;7.60;99.90;;;;;;5069760;28;20394;-76
2023/12/09 03:26:25;;;;;;;61.65;23.48;;;7.70;99.90;;;;;;5088175;28;20039;-76
2023/12/09 03:28:52;;;;;;;58.90;23.55;;;7.70;99.90;;;;;;5069367;28;20032;-76
2023/12/09 03:31:19;;;;;;;56.03;20.17;;;7.60;99.90;;;;;;5072175;28;20157;-76
2023/12/09 03:33:45;;;;;;;54.72;19.27;;;7.60;99.90;;;;;;5096307;28;20032;-77
2023/12/09 03:36:15;;;;;;;40.75;16.50;;;7.60;99.90;;;;;;5072291;28;20039;-76
2023/12/09 03:38:41;;;;;;;47.45;16.05;;;7.60;99.90;;;;;;5080664;28;20035;-76
2023/12/09 03:41:09;;;;;;;36.97;14.48;;;7.60;99.90;;;;;;5093942;27;20442;-76
2023/12/09 03:43:36;;;;;;;41.30;15.45;;;7.60;99.90;;;;;;5070629;28;20024;-76
2023/12/09 03:46:02;;;;;;;32.33;12.88;;;7.60;99.90;;;;;;5097467;28;20036;-76
2023/12/09 03:48:31;;;;;;;30.50;12.45;;;7.60;99.90;;;;;;5076148;28;20027;-76
2023/12/09 03:50:57;;;;;;;28.90;12.18;;;7.60;99.90;;;;;;5075095;28;20032;-76
2023/12/09 03:53:24;;;;;;;30.95;11.65;;;7.60;99.90;;;;;;5078051;28;20102;-76
2023/12/09 03:55:50;;;;;;;33.72;10.82;;;7.60;99.90;;;;;;5092473;28;20039;-76
2023/12/09 03:58:17;;;;;;;25.85;9.50;;;7.60;99.90;;;;;;5086383;28;20035;-76
2023/12/09 04:00:44;;;;;;;31.05;10.75;;;7.60;99.90;;;;;;5075949;28;20036;-76
2023/12/09 04:03:11;;;;;;;29.73;10.80;;;7.60;99.90;;;;;;5060600;28;20028;-76
2023/12/09 04:05:38;;;;;;;34.65;11.27;;;7.60;99.90;;;;;;5095107;28;20418;-77
2023/12/09 04:08:04;;;;;;;27.70;10.35;;;7.60;99.90;;;;;;5076778;28;20039;-76
2023/12/09 04:10:31;;;;;;;44.22;12.63;;;7.50;99.90;;;;;;5077258;28;20032;-75
2023/12/09 04:12:57;;;;;;;32.97;11.77;;;7.50;99.90;;;;;;5074225;28;20032;-75
2023/12/09 04:15:24;;;;;;;29.85;11.27;;;7.50;99.90;;;;;;5074699;28;20034;-76
2023/12/09 04:17:50;;;;;;;30.15;10.95;;;7.50;99.90;;;;;;5085776;28;20042;-76
2023/12/09 04:20:17;;;;;;;34.10;11.85;;;7.50;99.90;;;;;;5070896;28;20044;-76
2023/12/09 04:22:43;;;;;;;35.33;12.93;;;7.50;99.90;;;;;;5076682;28;20610;-76
2023/12/09 04:25:09;;;;;;;43.92;14.35;;;7.50;99.90;;;;;;5063094;28;20769;-76
2023/12/09 04:27:36;;;;;;;39.22;12.93;;;7.40;99.90;;;;;;5078526;28;20313;-76
2023/12/09 04:30:06;;;;;;;33.10;12.85;;;7.50;99.90;;;;;;5055981;28;20031;-76
2023/12/09 04:32:32;;;;;;;40.97;14.43;;;7.40;99.90;;;;;;5074854;28;20058;-76
2023/12/09 04:34:59;;;;;;;36.95;11.25;;;7.40;99.90;;;;;;5095008;28;20406;-77
2023/12/09 04:37:26;;;;;;;39.20;13.27;;;7.40;99.90;;;;;;5094546;28;20131;-76
2023/12/09 04:39:52;;;;;;;31.92;12.57;;;7.30;99.90;;;;;;5070744;28;20050;-76
2023/12/09 04:42:19;;;;;;;29.85;10.43;;;7.30;99.90;;;;;;5084047;28;20032;-76
2023/12/09 04:44:45;;;;;;;37.47;12.55;;;7.40;99.90;;;;;;5074693;28;20042;-77
2023/12/09 04:47:12;;;;;;;43.97;13.15;;;7.30;99.90;;;;;;5090776;28;20502;-76
2023/12/09 04:49:38;;;;;;;27.65;10.50;;;7.40;99.90;;;;;;5076024;28;20481;-76
2023/12/09 04:52:05;;;;;;;34.30;10.73;;;7.40;99.90;;;;;;5075225;28;20039;-77
2023/12/09 04:54:31;;;;;;;32.38;9.90;;;7.30;99.90;;;;;;5075650;28;20052;-76
2023/12/09 04:56:57;;;;;;;33.97;11.25;;;7.30;99.90;;;;;;5072818;28;20039;-77
2023/12/09 04:59:24;;;;;;;32.00;10.63;;;7.40;99.90;;;;;;5077181;28;20035;-77
2023/12/09 05:01:51;;;;;;;32.78;10.23;;;7.40;99.90;;;;;;5087706;28;20071;-76
2023/12/09 05:04:17;;;;;;;25.70;8.52;;;7.40;99.90;;;;;;5089865;28;20027;-77
2023/12/09 05:06:43;;;;;;;27.65;8.90;;;7.30;99.90;;;;;;5097214;28;20040;-77
2023/12/09 05:09:10;;;;;;;23.52;7.97;;;7.30;99.90;;;;;;5078321;28;20032;-76
2023/12/09 05:11:37;;;;;;;26.17;10.38;;;7.20;99.90;;;;;;5070778;28;20019;-77
2023/12/09 05:14:03;;;;;;;32.65;9.38;;;7.10;99.90;;;;;;5060581;28;20023;-76
2023/12/09 05:16:30;;;;;;;36.58;11.15;;;7.10;99.90;;;;;;5069764;28;20426;-77
2023/12/09 05:18:56;;;;;;;38.70;11.80;;;7.00;99.90;;;;;;5081256;28;20027;-76
2023/12/09 05:21:22;;;;;;;33.88;10.45;;;7.00;99.90;;;;;;5093388;28;20024;-76
2023/12/09 05:23:49;;;;;;;28.35;10.80;;;7.00;99.90;;;;;;5071371;28;20043;-76
2023/12/09 05:26:28;;;;;;;28.77;9.05;;;6.90;99.90;;;;;;5076857;28;20036;-77
2023/12/09 05:28:55;;;;;;;26.60;9.18;;;6.90;99.90;;;;;;5072815;28;20032;-76
2023/12/09 05:31:23;;;;;;;34.13;12.00;;;6.90;99.90;;;;;;5097332;28;20039;-77
2023/12/09 05:33:50;;;;;;;21.73;8.80;;;6.80;99.90;;;;;;5085685;28;20032;-76
2023/12/09 05:36:16;;;;;;;24.15;8.98;;;6.80;99.90;;;;;;5076454;28;20513;-77
2023/12/09 05:38:43;;;;;;;29.20;9.75;;;6.70;99.90;;;;;;5069707;28;20040;-77
2023/12/09 05:41:10;;;;;;;26.17;8.30;;;6.60;99.90;;;;;;5087684;28;20032;-76
2023/12/09 05:43:37;;;;;;;21.98;8.45;;;6.60;99.90;;;;;;5074698;28;20492;-77
2023/12/09 05:46:04;;;;;;;27.85;9.07;;;6.50;99.90;;;;;;5077582;28;20039;-76
2023/12/09 05:48:34;;;;;;;21.98;7.90;;;6.50;99.90;;;;;;5054560;28;20035;-75
2023/12/09 05:51:01;;;;;;;20.70;8.48;;;6.50;99.90;;;;;;5050796;28;20035;-76
2023/12/09 05:53:27;;;;;;;21.83;8.38;;;6.50;99.90;;;;;;5106332;27;20025;-76
2023/12/09 05:55:54;;;;;;;35.58;10.02;;;6.50;99.90;;;;;;5066695;28;20031;-76
2023/12/09 05:58:20;;;;;;;28.52;9.38;;;6.50;99.90;;;;;;5086095;28;20046;-76
2023/12/09 06:00:46;;;;;;;29.02;10.90;;;6.40;99.90;;;;;;5066706;28;20047;-75
2023/12/09 06:03:13;;;;;;;32.45;11.18;;;6.40;99.90;;;;;;5079079;28;20043;-76
2023/12/09 06:05:39;;;;;;;29.20;10.40;;;6.40;99.90;;;;;;5113811;27;20043;-77
2023/12/09 06:08:05;;;;;;;22.20;9.68;;;6.40;99.90;;;;;;5076903;28;20505;-76
2023/12/09 06:10:31;;;;;;;21.50;10.25;;;6.30;99.90;;;;;;5071973;28;20028;-74
2023/12/09 06:12:58;;;;;;;36.78;12.40;;;6.30;99.90;;;;;;5092187;28;20024;-76
2023/12/09 06:15:24;;;;;;;33.63;11.98;;;6.30;99.90;;;;;;5088690;28;20039;-77
2023/12/09 06:17:50;;;;;;;31.20;11.32;;;6.20;99.90;;;;;;5072322;28;20042;-77
2023/12/09 06:20:16;;;;;;;23.38;8.82;;;6.20;99.90;;;;;;5077783;28;20040;-76
2023/12/09 06:22:43;;;;;;;21.85;8.23;;;6.20;99.90;;;;;;5075850;28;20382;-76
2023/12/09 06:25:09;;;;;;;28.42;10.15;;;6.20;99.90;;;;;;5091178;28;20036;-76
2023/12/09 06:27:36;;;;;;;28.05;9.38;;;6.30;99.90;;;;;;5086819;28;20611;-77
2023/12/09 06:30:04;;;;;;;32.28;9.30;;;6.20;99.90;;;;;;5079061;28;20043;-76
2023/12/09 06:32:31;;;;;;;22.38;8.00;;;6.20;99.90;;;;;;5097387;28;20028;-77
2023/12/09 06:34:58;;;;;;;25.25;8.80;;;6.20;99.90;;;;;;5106855;27;20046;-76
2023/12/09 06:37:24;;;;;;;25.58;9.07;;;6.30;99.90;;;;;;5072800;28;20059;-77
2023/12/09 06:39:50;;;;;;;32.83;9.43;;;6.30;99.90;;;;;;5084755;28;20058;-77
2023/12/09 06:42:17;;;;;;;20.77;7.88;;;6.40;99.90;;;;;;5087621;27;20470;-77
2023/12/09 06:44:43;;;;;;;25.00;8.63;;;6.40;99.90;;;;;;5070005;28;20039;-76
2023/12/09 06:47:10;;;;;;;38.42;11.55;;;6.40;99.90;;;;;;5073662;28;20470;-76
2023/12/09 06:49:36;;;;;;;31.58;9.20;;;6.50;99.90;;;;;;5091824;28;20424;-76
2023/12/09 06:52:03;;;;;;;37.30;10.15;;;6.50;99.90;;;;;;5105024;27;20028;-76
2023/12/09 06:54:29;;;;;;;28.80;9.05;;;6.50;99.90;;;;;;5075836;28;20381;-76
2023/12/09 06:56:56;;;;;;;30.25;8.75;;;6.50;99.90;;;;;;5084590;28;20042;-75
2023/12/09 06:59:23;;;;;;;28.70;7.93;;;6.60;99.90;;;;;;5078414;28;20039;-76
2023/12/09 07:01:49;;;;;;;28.55;7.70;;;6.50;99.90;;;;;;5058577;28;20043;-76
2023/12/09 07:04:16;;;;;;;29.92;9.40;;;6.60;99.90;;;;;;5072807;28;20031;-76
2023/12/09 07:06:43;;;;;;;31.15;9.95;;;6.50;99.90;;;;;;5074807;28;20032;-76
2023/12/09 07:09:09;;;;;;;32.70;9.00;;;6.60;99.90;;;;;;5068361;28;20035;-76
2023/12/09 07:11:35;;;;;;;24.58;9.30;;;6.60;99.90;;;;;;5072194;28;20696;-76
2023/12/09 07:14:01;;;;;;;28.13;8.98;;;6.50;99.90;;;;;;5092685;28;20050;-76
2023/12/09 07:16:28;;;;;;;31.75;9.77;;;6.60;99.90;;;;;;5084791;28;20043;-76
2023/12/09 07:18:58;;;;;;;29.38;10.55;;;6.60;99.90;;;;;;5075501;28;20032;-76
2023/12/09 07:21:27;;;;;;;32.88;12.18;;;6.60;99.90;;;;;;5069575;28;20027;-76
2023/12/09 07:23:53;;;;;;;30.42;11.07;;;6.60;99.90;;;;;;5091834;28;20039;-76
2023/12/09 07:26:19;;;;;;;30.92;12.25;;;6.60;99.90;;;;;;5071992;28;20035;-76
2023/12/09 07:28:46;;;;;;;29.13;12.93;;;6.60;99.90;;;;;;5070770;28;20056;-76
2023/12/09 07:31:12;;;;;;;32.55;13.27;;;6.60;99.90;;;;;;5075565;28;20501;-77
2023/12/09 07:33:38;;;;;;;29.77;12.20;;;6.50;99.90;;;;;;5077534;28;20027;-77
2023/12/09 07:36:05;;;;;;;29.02;11.45;;;6.50;99.90;;;;;;5058363;28;20040;-76
2023/12/09 07:38:31;;;;;;;33.67;12.00;;;6.50;99.90;;;;;;5074399;28;20039;-76
2023/12/09 07:40:58;;;;;;;27.88;9.98;;;6.50;99.90;;;;;;5069354;28;20043;-76
2023/12/09 07:43:24;;;;;;;21.58;9.00;;;6.50;99.90;;;;;;5089095;28;20032;-76
2023/12/09 07:45:50;;;;;;;29.65;10.23;;;6.50;99.90;;;;;;5087418;28;20024;-76
2023/12/09 07:48:17;;;;;;;27.58;9.77;;;6.50;99.90;;;;;;5074831;28;20024;-75
2023/12/09 07:50:43;;;;;;;25.92;11.25;;;6.50;99.90;;;;;;5074119;28;20028;-76
2023/12/09 07:53:10;;;;;;;31.20;14.30;;;6.40;99.90;;;;;;5058604;28;20039;-77
2023/12/09 07:55:36;;;;;;;23.45;10.27;;;6.40;99.90;;;;;;5070567;28;20028;-77
2023/12/09 07:58:03;;;;;;;27.95;11.68;;;6.40;99.90;;;;;;5061797;28;20036;-76
2023/12/09 08:00:29;;;;;;;39.60;12.77;;;6.40;99.90;;;;;;5072525;28;20039;-76
2023/12/09 08:02:55;;;;;;;27.92;10.98;;;6.40;99.90;;;;;;5068017;28;20035;-76
2023/12/09 08:05:23;;;;;;;25.02;10.00;;;6.40;99.90;;;;;;5076255;28;20405;-76
2023/12/09 08:07:50;;;;;;;31.30;11.00;;;6.40;99.90;;;;;;5078914;28;20032;-76
2023/12/09 08:10:17;;;;;;;29.23;11.35;;;6.50;99.90;;;;;;5045812;28;20020;-75
2023/12/09 08:12:44;;;;;;;32.67;10.63;;;6.50;99.90;;;;;;5081747;28;20036;-76
2023/12/09 08:15:10;;;;;;;29.80;9.85;;;6.50;99.90;;;;;;5067879;28;20035;-76
2023/12/09 08:17:37;;;;;;;27.85;9.88;;;6.50;99.90;;;;;;5078845;28;20449;-76
2023/12/09 08:20:08;;;;;;;23.52;8.05;;;6.60;99.90;;;;;;5074372;28;20040;-76
2023/12/09 08:22:36;;;;;;;26.63;9.95;;;6.60;99.90;;;;;;5075443;28;20059;-78
2023/12/09 08:25:03;;;;;;;24.52;9.35;;;6.60;99.90;;;;;;5090844;28;20042;-76
2023/12/09 08:27:30;;;;;;;25.55;9.23;;;6.60;99.90;;;;;;5058795;27;20032;-75
2023/12/09 08:29:56;;;;;;;35.90;10.77;;;6.70;99.90;;;;;;5077730;28;20031;-81
2023/12/09 08:32:23;;;;;;;33.13;12.23;;;6.70;99.90;;;;;;5079662;28;20470;-76
2023/12/09 08:34:49;;;;;;;35.25;12.18;;;6.70;99.90;;;;;;5072597;28;20031;-76
2023/12/09 08:37:24;;;;;;;31.38;11.07;;;6.80;99.90;;;;;;5073752;28;20043;-77
2023/12/09 08:39:53;;;;;;;36.13;11.73;;;6.80;99.90;;;;;;5099854;28;20036;-75
2023/12/09 08:42:20;;;;;;;34.45;11.38;;;6.80;99.90;;;;;;5063987;27;20036;-76
2023/12/09 08:44:47;;;;;;;27.95;10.75;;;6.80;99.90;;;;;;5077686;28;20363;-77
2023/12/09 08:47:13;;;;;;;23.42;8.68;;;6.90;99.90;;;;;;5074215;28;20027;-76
2023/12/09 08:49:39;;;;;;;25.85;10.60;;;6.90;99.90;;;;;;5056849;28;20039;-77
2023/12/09 08:52:06;;;;;;;24.13;10.15;;;6.90;99.90;;;;;;5070187;28;20393;-76
2023/12/09 08:54:33;;;;;;;25.75;10.30;;;7.00;99.90;;;;;;5080142;28;20036;-76
2023/12/09 08:56:59;;;;;;;26.80;10.05;;;7.00;99.90;;;;;;5115907;27;20040;-76
2023/12/09 08:59:25;;;;;;;29.70;10.75;;;7.10;99.90;;;;;;5095252;28;20559;-76
2023/12/09 09:01:51;;;;;;;25.70;10.20;;;7.10;99.90;;;;;;5074093;28;20489;-77
2023/12/09 09:04:19;;;;;;;31.40;12.00;;;7.10;99.90;;;;;;5095479;28;20039;-77
2023/12/09 09:06:46;;;;;;;32.90;10.65;;;7.10;99.90;;;;;;5074598;28;20036;-77
2023/12/09 09:09:12;;;;;;;22.92;9.95;;;7.20;99.90;;;;;;5073337;28;20050;-76
2023/12/09 09:11:38;;;;;;;25.13;9.65;;;7.20;99.90;;;;;;5090319;28;20028;-76
2023/12/09 09:14:04;;;;;;;21.67;9.35;;;7.20;99.90;;;;;;5091417;28;20468;-77
2023/12/09 09:16:31;;;;;;;25.35;9.10;;;7.20;99.90;;;;;;5078179;28;20382;-76
2023/12/09 09:18:57;;;;;;;22.15;9.82;;;7.20;99.90;;;;;;5084176;28;20417;-76
2023/12/09 09:21:23;;;;;;;32.70;11.02;;;7.20;99.90;;;;;;5091557;28;20039;-79
2023/12/09 09:23:50;;;;;;;26.95;11.80;;;7.30;99.90;;;;;;5074597;28;20038;-78
2023/12/09 09:26:16;;;;;;;27.90;12.48;;;7.30;99.90;;;;;;5057803;28;20584;-77
2023/12/09 09:28:43;;;;;;;22.80;10.77;;;7.30;99.90;;;;;;5068714;28;20043;-78
2023/12/09 09:31:12;;;;;;;24.75;11.55;;;7.40;99.90;;;;;;5071144;28;20028;-78
2023/12/09 09:33:38;;;;;;;21.20;11.35;;;7.40;99.90;;;;;;5070284;28;20043;-79
2023/12/09 09:36:05;;;;;;;23.70;10.25;;;7.40;99.90;;;;;;5072023;28;20051;-81
2023/12/09 09:38:31;;;;;;;22.65;8.70;;;7.50;99.90;;;;;;5079009;28;20028;-78
2023/12/09 09:40:58;;;;;;;21.58;6.43;;;7.50;99.90;;;;;;5072444;28;20031;-80
2023/12/09 09:43:28;;;;;;;17.98;5.65;;;7.50;99.90;;;;;;5093536;27;20421;-79
2023/12/09 09:45:56;;;;;;;16.33;5.28;;;7.50;99.90;;;;;;5083273;28;20058;-79
2023/12/09 09:48:24;;;;;;;18.80;5.07;;;7.50;99.90;;;;;;5068986;28;20482;-79
2023/12/09 09:50:52;;;;;;;19.38;4.75;;;7.50;99.90;;;;;;5075051;28;20386;-77
2023/12/09 09:53:31;;;;;;;21.98;4.88;;;7.60;99.90;;;;;;5074611;28;20028;-78
2023/12/09 09:55:59;;;;;;;16.40;4.47;;;7.60;99.90;;;;;;5091675;28;20034;-79
2023/12/09 09:58:25;;;;;;;17.58;5.55;;;7.50;99.90;;;;;;5089619;28;20165;-77
2023/12/09 10:00:55;;;;;;;16.88;3.60;;;7.60;99.90;;;;;;5068863;28;20036;-80
2023/12/09 10:03:23;;;;;;;14.10;4.60;;;7.60;99.90;;;;;;5080260;27;20031;-79
2023/12/09 10:05:51;;;;;;;16.38;3.50;;;7.60;99.90;;;;;;5083264;28;20467;-77
2023/12/09 10:08:17;;;;;;;17.10;4.45;;;7.70;99.90;;;;;;5064751;28;20047;-79
2023/12/09 10:10:44;;;;;;;16.85;4.10;;;7.70;99.90;;;;;;5092561;28;20026;-80
2023/12/09 10:13:11;;;;;;;20.25;4.75;;;7.70;99.90;;;;;;5062436;27;20043;-77
2023/12/09 10:15:37;;;;;;;17.70;4.15;;;7.80;99.90;;;;;;5098938;28;20047;-76
2023/12/09 10:18:04;;;;;;;17.60;3.42;;;7.90;99.90;;;;;;5056826;28;20043;-79
2023/12/09 10:20:33;;;;;;;13.60;3.67;;;8.00;99.90;;;;;;5069041;28;20040;-78
2023/12/09 10:23:00;;;;;;;11.63;2.63;;;8.10;99.90;;;;;;5104680;27;20032;-79
2023/12/09 10:25:27;;;;;;;10.55;3.30;;;8.10;99.90;;;;;;5078566;28;20027;-80
2023/12/09 10:27:54;;;;;;;16.45;3.75;;;8.20;99.90;;;;;;5068011;28;20466;-78
2023/12/09 10:30:21;;;;;;;14.38;3.90;;;8.30;99.90;;;;;;5092055;28;20028;-78
2023/12/09 10:32:48;;;;;;;19.50;4.40;;;8.30;99.90;;;;;;5073622;28;20481;-78
2023/12/09 10:35:18;;;;;;;11.57;2.72;;;8.30;99.90;;;;;;5069451;28;20036;-80
2023/12/09 10:37:48;;;;;;;14.52;4.30;;;8.30;99.90;;;;;;5080447;28;20132;-77
2023/12/09 10:40:14;;;;;;;18.30;4.13;;;8.30;99.90;;;;;;5093793;28;20529;-80
2023/12/09 10:42:40;;;;;;;17.63;4.03;;;8.30;99.90;;;;;;5072643;28;20044;-79
2023/12/09 10:45:08;;;;;;;17.27;3.15;;;8.30;99.90;;;;;;5091464;28;20024;-81
2023/12/09 10:47:34;;;;;;;17.55;2.55;;;8.40;99.90;;;;;;5075470;28;20518;-78
2023/12/09 10:50:03;;;;;;;17.08;3.13;;;8.40;99.90;;;;;;5062381;28;20378;-77
2023/12/09 10:52:29;;;;;;;16.17;2.97;;;8.40;99.90;;;;;;5067085;28;20039;-78
2023/12/09 10:54:57;;;;;;;11.80;2.58;;;8.50;99.90;;;;;;5060981;28;20036;-76
2023/12/09 10:57:24;;;;;;;15.30;3.70;;;8.50;99.90;;;;;;5084257;28;20040;-77
2023/12/09 10:59:52;;;;;;;14.60;2.83;;;8.50;99.90;;;;;;5075820;28;20043;-78
2023/12/09 11:02:20;;;;;;;16.33;3.53;;;8.50;99.90;;;;;;5074275;28;20522;-77
2023/12/09 11:04:49;;;;;;;14.07;3.33;;;8.50;99.90;;;;;;5089223;28;20032;-78
2023/12/09 11:07:16;;;;;;;9.10;2.25;;;8.50;99.90;;;;;;5068143;28;20402;-77
2023/12/09 11:09:44;;;;;;;19.30;3.35;;;8.60;99.90;;;;;;5060356;28;20459;-77
2023/12/09 11:12:10;;;;;;;8.63;2.10;;;8.60;99.90;;;;;;5067770;28;20453;-77
2023/12/09 11:14:37;;;;;;;8.00;2.10;;;8.60;99.90;;;;;;5067501;28;20024;-79
2023/12/09 11:17:23;;;;;;;8.55;2.03;;;8.60;99.90;;;;;;5073046;28;20032;-76
2023/12/09 11:19:50;;;;;;;11.93;2.42;;;8.60;99.90;;;;;;5090297;28;20040;-78
2023/12/09 11:22:18;;;;;;;12.63;2.58;;;8.50;99.90;;;;;;5068002;28;20477;-78
2023/12/09 11:24:45;;;;;;;12.00;2.08;;;8.50;99.90;;;;;;5095712;28;20044;-79
2023/12/09 11:27:17;;;;;;;11.88;2.65;;;8.50;99.90;;;;;;5072169;28;20051;-77
2023/12/09 11:29:44;;;;;;;9.25;2.47;;;8.50;99.90;;;;;;5075937;28;20040;-78
2023/12/09 11:32:13;;;;;;;10.95;3.00;;;8.50;99.90;;;;;;5074687;28;20035;-76
2023/12/09 11:34:40;;;;;;;12.40;1.70;;;8.50;99.90;;;;;;5064847;28;20044;-77
2023/12/09 11:37:10;;;;;;;10.57;1.85;;;8.40;99.90;;;;;;5072996;28;20407;-78
2023/12/09 11:39:40;;;;;;;10.50;1.88;;;8.40;99.90;;;;;;5073328;28;20024;-77
2023/12/09 11:42:07;;;;;;;13.75;2.42;;;8.40;99.90;;;;;;5079090;28;20036;-77
2023/12/09 11:44:36;;;;;;;14.75;2.65;;;8.40;99.90;;;;;;5081868;28;20067;-77
2023/12/09 11:47:04;;;;;;;13.57;1.85;;;8.40;99.90;;;;;;5093032;28;20031;-78
2023/12/09 11:49:31;;;;;;;13.15;2.33;;;8.40;99.90;;;;;;5072859;28;20032;-78
2023/12/09 11:52:01;;;;;;;10.10;1.80;;;8.30;99.90;;;;;;5074306;28;20035;-77
2023/12/09 11:54:28;;;;;;;14.85;1.98;;;8.40;99.90;;;;;;5072230;28;20046;-77
2023/12/09 11:56:54;;;;;;;12.13;3.05;;;8.30;99.90;;;;;;5057355;28;20048;-77
2023/12/09 11:59:21;;;;;;;9.32;2.67;;;8.30;99.90;;;;;;5086642;28;20035;-79
2023/12/09 12:01:47;;;;;;;11.27;2.65;;;8.30;99.90;;;;;;5052196;28;20035;-78
2023/12/09 12:04:14;;;;;;;11.25;2.83;;;8.30;99.90;;;;;;5081098;28;20509;-78
2023/12/09 12:06:40;;;;;;;13.90;3.05;;;8.30;99.90;;;;;;5097205;28;20036;-77
2023/12/09 12:09:06;;;;;;;12.27;2.90;;;8.40;99.90;;;;;;5097499;28;20044;-78
2023/12/09 12:11:33;;;;;;;10.98;2.80;;;8.40;99.90;;;;;;5075419;28;20482;-77
2023/12/09 12:14:00;;;;;;;15.50;3.17;;;8.40;99.90;;;;;;5082946;28;20036;-79
2023/12/09 12:16:27;;;;;;;12.20;2.92;;;8.40;99.90;;;;;;5094366;28;20028;-77
2023/12/09 12:18:56;;;;;;;7.15;2.58;;;8.40;99.90;;;;;;5078473;28;20038;-77
2023/12/09 12:21:22;;;;;;;15.82;3.15;;;8.40;99.90;;;;;;5102835;28;20032;-76
2023/12/09 12:23:52;;;;;;;11.40;3.38;;;8.40;99.90;;;;;;5078273;28;20415;-77
2023/12/09 12:26:19;;;;;;;12.07;2.60;;;8.30;99.90;;;;;;5076545;28;20042;-77
2023/12/09 12:28:51;;;;;;;11.07;2.65;;;8.40;99.90;;;;;;5094606;28;20039;-77
2023/12/09 12:31:17;;;;;;;10.53;2.63;;;8.40;99.90;;;;;;5073066;28;20044;-77
2023/12/09 12:33:44;;;;;;;13.88;3.20;;;8.40;99.90;;;;;;5082644;28;20282;-78
2023/12/09 12:36:10;;;;;;;9.35;3.35;;;8.40;99.90;;;;;;5075376;28;20039;-78
2023/12/09 12:38:38;;;;;;;11.00;3.10;;;8.40;99.90;;;;;;5064397;28;20406;-78
2023/12/09 12:41:04;;;;;;;14.48;4.22;;;8.30;99.90;;;;;;5077725;28;20409;-78